sensor_id;sensor_type;location;lat;lon;timestamp;temperature;humidity
15113;DHT22;7657;50.140;7.076;2023-08-07T00:01:48;12.00;99.90
15113;DHT22;7657;50.140;7.076;2023-08-07T00:04:15;12.00;99.90
15113;DHT22;7657;50.140;7.076;2023-08-07T00:06:42;12.00;99.90
15113;DHT22;7657;50.140;7.076;2023-08-07T00:09:10;11.90;99.90
15113;DHT22;7657;50.140;7.076;2023-08-07T00:11:37;11.90;99.90
15113;DHT22;7657;50.140;7.076;2023-08-07T00:14:03;11.90;99.90
15113;DHT22;7657;50.140;7.076;2023-08-07T00:16:30;11.90;99.90
15113;DHT22;7657;50.140;7.076;2023-08-07T00:18:57;12.00;99.90
15113;DHT22;7657;50.140;7.076;2023-08-07T00:21:24;12.00;99.90
15113;DHT22;7657;50.140;7.076;2023-08-07T00:23:51;12.00;99.90
15113;DHT22;7657;50.140;7.076;2023-08-07T00:26:19;11.90;99.90
15113;DHT22;7657;50.140;7.076;2023-08-07T00:28:46;11.90;99.90
15113;DHT22;7657;50.140;7.076;2023-08-07T00:31:13;11.90;99.90
15113;DHT22;7657;50.140;7.076;2023-08-07T00:33:40;11.90;99.90
15113;DHT22;7657;50.140;7.076;2023-08-07T00:36:07;11.90;99.90
15113;DHT22;7657;50.140;7.076;2023-08-07T00:38:34;11.90;99.90
15113;DHT22;7657;50.140;7.076;2023-08-07T00:41:00;11.90;99.90
15113;DHT22;7657;50.140;7.076;2023-08-07T00:43:29;11.90;99.90
15113;DHT22;7657;50.140;7.076;2023-08-07T00:45:56;12.00;99.90
15113;DHT22;7657;50.140;7.076;2023-08-07T00:48:23;11.90;99.90
15113;DHT22;7657;50.140;7.076;2023-08-07T00:50:51;11.90;99.90
15113;DHT22;7657;50.140;7.076;2023-08-07T00:53:18;11.90;99.90
15113;DHT22;7657;50.140;7.076;2023-08-07T00:55:46;11.90;99.90
15113;DHT22;7657;50.140;7.076;2023-08-07T00:58:13;11.80;99.90
15113;DHT22;7657;50.140;7.076;2023-08-07T01:00:42;11.90;99.90
15113;DHT22;7657;50.140;7.076;2023-08-07T01:03:08;11.80;99.90
15113;DHT22;7657;50.140;7.076;2023-08-07T01:05:37;11.90;99.90
15113;DHT22;7657;50.140;7.076;2023-08-07T01:08:04;11.90;99.90
15113;DHT22;7657;50.140;7.076;2023-08-07T01:10:35;11.80;99.90
15113;DHT22;7657;50.140;7.076;2023-08-07T01:13:10;11.80;99.90
15113;DHT22;7657;50.140;7.076;2023-08-07T01:15:39;11.90;99.90
15113;DHT22;7657;50.140;7.076;2023-08-07T01:18:08;11.90;99.90
15113;DHT22;7657;50.140;7.076;2023-08-07T01:20:35;12.00;99.90
15113;DHT22;7657;50.140;7.076;2023-08-07T01:23:04;11.90;99.90
15113;DHT22;7657;50.140;7.076;2023-08-07T01:25:31;11.90;99.90
15113;DHT22;7657;50.140;7.076;2023-08-07T01:28:02;11.90;99.90
15113;DHT22;7657;50.140;7.076;2023-08-07T01:30:36;11.90;99.90
15113;DHT22;7657;50.140;7.076;2023-08-07T01:33:10;11.90;99.90
15113;DHT22;7657;50.140;7.076;2023-08-07T01:35:41;11.90;99.90
15113;DHT22;7657;50.140;7.076;2023-08-07T01:38:11;11.90;99.90
15113;DHT22;7657;50.140;7.076;2023-08-07T01:40:39;11.90;99.90
15113;DHT22;7657;50.140;7.076;2023-08-07T01:43:07;11.80;99.90
15113;DHT22;7657;50.140;7.076;2023-08-07T01:45:34;11.80;99.90
15113;DHT22;7657;50.140;7.076;2023-08-07T01:48:01;11.80;99.90
15113;DHT22;7657;50.140;7.076;2023-08-07T01:50:29;11.70;99.90
15113;DHT22;7657;50.140;7.076;2023-08-07T01:52:56;11.70;99.90
15113;DHT22;7657;50.140;7.076;2023-08-07T01:55:25;11.70;99.90
15113;DHT22;7657;50.140;7.076;2023-08-07T01:57:52;11.60;99.90
15113;DHT22;7657;50.140;7.076;2023-08-07T02:00:19;11.70;99.90
15113;DHT22;7657;50.140;7.076;2023-08-07T02:02:46;11.70;99.90
15113;DHT22;7657;50.140;7.076;2023-08-07T02:05:14;11.70;99.90
15113;DHT22;7657;50.140;7.076;2023-08-07T02:07:41;11.70;99.90
15113;DHT22;7657;50.140;7.076;2023-08-07T02:10:08;11.80;99.90
15113;DHT22;7657;50.140;7.076;2023-08-07T02:12:37;11.80;99.90
15113;DHT22;7657;50.140;7.076;2023-08-07T02:15:05;11.80;99.90
15113;DHT22;7657;50.140;7.076;2023-08-07T02:17:32;11.80;99.90
15113;DHT22;7657;50.140;7.076;2023-08-07T02:19:59;11.80;99.90
15113;DHT22;7657;50.140;7.076;2023-08-07T02:22:26;11.80;99.90
15113;DHT22;7657;50.140;7.076;2023-08-07T02:24:52;11.90;99.90
15113;DHT22;7657;50.140;7.076;2023-08-07T02:27:18;11.90;99.90
15113;DHT22;7657;50.140;7.076;2023-08-07T02:29:47;11.80;99.90
15113;DHT22;7657;50.140;7.076;2023-08-07T02:32:14;11.70;99.90
15113;DHT22;7657;50.140;7.076;2023-08-07T02:34:40;11.80;99.90
15113;DHT22;7657;50.140;7.076;2023-08-07T02:37:07;11.80;99.90
15113;DHT22;7657;50.140;7.076;2023-08-07T02:39:34;11.80;99.90
15113;DHT22;7657;50.140;7.076;2023-08-07T02:42:01;11.70;99.90
15113;DHT22;7657;50.140;7.076;2023-08-07T02:44:28;11.80;99.90
15113;DHT22;7657;50.140;7.076;2023-08-07T02:46:57;11.90;99.90
15113;DHT22;7657;50.140;7.076;2023-08-07T02:49:23;11.80;99.90
15113;DHT22;7657;50.140;7.076;2023-08-07T02:51:50;11.80;99.90
15113;DHT22;7657;50.140;7.076;2023-08-07T02:54:17;11.80;99.90
15113;DHT22;7657;50.140;7.076;2023-08-07T02:56:44;11.80;99.90
15113;DHT22;7657;50.140;7.076;2023-08-07T02:59:12;11.80;99.90
15113;DHT22;7657;50.140;7.076;2023-08-07T03:01:39;11.80;99.90
15113;DHT22;7657;50.140;7.076;2023-08-07T03:04:07;11.80;99.90
15113;DHT22;7657;50.140;7.076;2023-08-07T03:06:34;11.80;99.90
15113;DHT22;7657;50.140;7.076;2023-08-07T03:09:01;11.80;99.90
15113;DHT22;7657;50.140;7.076;2023-08-07T03:11:28;11.80;99.90
15113;DHT22;7657;50.140;7.076;2023-08-07T03:13:54;11.80;99.90
15113;DHT22;7657;50.140;7.076;2023-08-07T03:16:21;11.70;99.90
15113;DHT22;7657;50.140;7.076;2023-08-07T03:18:48;11.70;99.90
15113;DHT22;7657;50.140;7.076;2023-08-07T03:21:16;11.70;99.90
15113;DHT22;7657;50.140;7.076;2023-08-07T03:23:43;11.70;99.90
15113;DHT22;7657;50.140;7.076;2023-08-07T03:26:12;11.70;99.90
15113;DHT22;7657;50.140;7.076;2023-08-07T03:28:39;11.60;99.90
15113;DHT22;7657;50.140;7.076;2023-08-07T03:31:06;11.60;99.90
15113;DHT22;7657;50.140;7.076;2023-08-07T03:33:33;11.60;99.90
15113;DHT22;7657;50.140;7.076;2023-08-07T03:36:00;11.60;99.90
15113;DHT22;7657;50.140;7.076;2023-08-07T03:38:28;11.60;99.90
15113;DHT22;7657;50.140;7.076;2023-08-07T03:40:55;11.60;99.90
15113;DHT22;7657;50.140;7.076;2023-08-07T03:43:22;11.60;99.90
15113;DHT22;7657;50.140;7.076;2023-08-07T03:45:54;11.60;99.90
15113;DHT22;7657;50.140;7.076;2023-08-07T03:48:21;11.60;99.90
15113;DHT22;7657;50.140;7.076;2023-08-07T03:50:47;11.70;99.90
15113;DHT22;7657;50.140;7.076;2023-08-07T03:53:14;11.70;99.90
15113;DHT22;7657;50.140;7.076;2023-08-07T03:55:43;11.70;99.90
15113;DHT22;7657;50.140;7.076;2023-08-07T03:58:10;11.70;99.90
15113;DHT22;7657;50.140;7.076;2023-08-07T04:00:37;11.70;99.90
15113;DHT22;7657;50.140;7.076;2023-08-07T04:03:04;11.70;99.90
15113;DHT22;7657;50.140;7.076;2023-08-07T04:05:33;11.70;99.90
15113;DHT22;7657;50.140;7.076;2023-08-07T04:08:00;11.70;99.90
15113;DHT22;7657;50.140;7.076;2023-08-07T04:10:26;11.70;99.90
15113;DHT22;7657;50.140;7.076;2023-08-07T04:12:55;11.70;99.90
15113;DHT22;7657;50.140;7.076;2023-08-07T04:15:22;11.80;99.90
15113;DHT22;7657;50.140;7.076;2023-08-07T04:17:48;11.80;99.90
15113;DHT22;7657;50.140;7.076;2023-08-07T04:20:15;11.70;99.90
15113;DHT22;7657;50.140;7.076;2023-08-07T04:22:42;11.60;99.90
15113;DHT22;7657;50.140;7.076;2023-08-07T04:25:10;11.60;99.90
15113;DHT22;7657;50.140;7.076;2023-08-07T04:27:37;11.70;99.90
15113;DHT22;7657;50.140;7.076;2023-08-07T04:30:07;11.70;99.90
15113;DHT22;7657;50.140;7.076;2023-08-07T04:32:34;11.70;99.90
15113;DHT22;7657;50.140;7.076;2023-08-07T04:35:01;11.60;99.90
15113;DHT22;7657;50.140;7.076;2023-08-07T04:37:28;11.70;99.90
15113;DHT22;7657;50.140;7.076;2023-08-07T04:39:55;11.60;99.90
15113;DHT22;7657;50.140;7.076;2023-08-07T04:42:22;11.70;99.90
15113;DHT22;7657;50.140;7.076;2023-08-07T04:44:49;11.70;99.90
15113;DHT22;7657;50.140;7.076;2023-08-07T04:47:17;11.60;99.90
15113;DHT22;7657;50.140;7.076;2023-08-07T04:49:44;11.60;99.90
15113;DHT22;7657;50.140;7.076;2023-08-07T04:52:11;11.60;99.90
15113;DHT22;7657;50.140;7.076;2023-08-07T04:54:38;11.60;99.90
15113;DHT22;7657;50.140;7.076;2023-08-07T04:57:05;11.60;99.90
15113;DHT22;7657;50.140;7.076;2023-08-07T04:59:32;11.60;99.90
15113;DHT22;7657;50.140;7.076;2023-08-07T05:01:59;11.60;99.90
15113;DHT22;7657;50.140;7.076;2023-08-07T05:04:27;11.60;99.90
15113;DHT22;7657;50.140;7.076;2023-08-07T05:06:54;11.60;99.90
15113;DHT22;7657;50.140;7.076;2023-08-07T05:09:21;11.70;99.90
15113;DHT22;7657;50.140;7.076;2023-08-07T05:11:48;11.70;99.90
15113;DHT22;7657;50.140;7.076;2023-08-07T05:14:15;11.70;99.90
15113;DHT22;7657;50.140;7.076;2023-08-07T05:16:42;11.80;99.90
15113;DHT22;7657;50.140;7.076;2023-08-07T05:19:08;11.70;99.90
15113;DHT22;7657;50.140;7.076;2023-08-07T05:21:37;11.70;99.90
15113;DHT22;7657;50.140;7.076;2023-08-07T05:24:04;11.70;99.90
15113;DHT22;7657;50.140;7.076;2023-08-07T05:26:31;11.60;99.90
15113;DHT22;7657;50.140;7.076;2023-08-07T05:28:58;11.60;99.90
15113;DHT22;7657;50.140;7.076;2023-08-07T05:31:25;11.70;99.90
15113;DHT22;7657;50.140;7.076;2023-08-07T05:33:52;11.60;99.90
15113;DHT22;7657;50.140;7.076;2023-08-07T05:36:19;11.60;99.90
15113;DHT22;7657;50.140;7.076;2023-08-07T05:38:47;11.70;99.90
15113;DHT22;7657;50.140;7.076;2023-08-07T05:41:14;11.70;99.90
15113;DHT22;7657;50.140;7.076;2023-08-07T05:43:41;11.80;99.90
15113;DHT22;7657;50.140;7.076;2023-08-07T05:46:08;11.70;99.90
15113;DHT22;7657;50.140;7.076;2023-08-07T05:48:35;11.70;99.90
15113;DHT22;7657;50.140;7.076;2023-08-07T05:51:02;11.70;99.90
15113;DHT22;7657;50.140;7.076;2023-08-07T05:53:29;11.80;99.90
15113;DHT22;7657;50.140;7.076;2023-08-07T05:55:57;11.80;99.90
15113;DHT22;7657;50.140;7.076;2023-08-07T05:58:24;11.90;99.90
15113;DHT22;7657;50.140;7.076;2023-08-07T06:00:51;11.90;99.90
15113;DHT22;7657;50.140;7.076;2023-08-07T06:03:18;11.90;99.90
15113;DHT22;7657;50.140;7.076;2023-08-07T06:05:45;11.90;99.90
15113;DHT22;7657;50.140;7.076;2023-08-07T06:08:12;12.00;99.90
15113;DHT22;7657;50.140;7.076;2023-08-07T06:10:39;12.00;99.90
15113;DHT22;7657;50.140;7.076;2023-08-07T06:13:07;12.10;99.90
15113;DHT22;7657;50.140;7.076;2023-08-07T06:15:34;12.00;99.90
15113;DHT22;7657;50.140;7.076;2023-08-07T06:18:01;12.10;99.90
15113;DHT22;7657;50.140;7.076;2023-08-07T06:20:28;12.10;99.90
15113;DHT22;7657;50.140;7.076;2023-08-07T06:22:54;12.10;99.90
15113;DHT22;7657;50.140;7.076;2023-08-07T06:25:21;12.20;99.90
15113;DHT22;7657;50.140;7.076;2023-08-07T06:27:50;12.20;99.90
15113;DHT22;7657;50.140;7.076;2023-08-07T06:30:18;12.10;99.90
15113;DHT22;7657;50.140;7.076;2023-08-07T06:32:45;12.20;99.90
15113;DHT22;7657;50.140;7.076;2023-08-07T06:35:12;12.20;99.90
15113;DHT22;7657;50.140;7.076;2023-08-07T06:37:39;12.20;99.90
15113;DHT22;7657;50.140;7.076;2023-08-07T06:40:07;12.30;99.90
15113;DHT22;7657;50.140;7.076;2023-08-07T06:42:34;12.20;99.90
15113;DHT22;7657;50.140;7.076;2023-08-07T06:45:01;12.20;99.90
15113;DHT22;7657;50.140;7.076;2023-08-07T06:47:30;12.30;99.90
15113;DHT22;7657;50.140;7.076;2023-08-07T06:49:56;12.30;99.90
15113;DHT22;7657;50.140;7.076;2023-08-07T06:52:23;12.40;99.90
15113;DHT22;7657;50.140;7.076;2023-08-07T06:54:50;12.40;99.90
15113;DHT22;7657;50.140;7.076;2023-08-07T06:57:18;12.30;99.90
15113;DHT22;7657;50.140;7.076;2023-08-07T06:59:44;12.30;99.90
15113;DHT22;7657;50.140;7.076;2023-08-07T07:02:11;12.30;99.90
15113;DHT22;7657;50.140;7.076;2023-08-07T07:04:40;12.30;99.90
15113;DHT22;7657;50.140;7.076;2023-08-07T07:07:06;12.30;99.90
15113;DHT22;7657;50.140;7.076;2023-08-07T07:09:33;12.30;99.90
15113;DHT22;7657;50.140;7.076;2023-08-07T07:12:00;12.40;99.90
15113;DHT22;7657;50.140;7.076;2023-08-07T07:14:27;12.40;99.90
15113;DHT22;7657;50.140;7.076;2023-08-07T07:16:54;12.40;99.90
15113;DHT22;7657;50.140;7.076;2023-08-07T07:19:21;12.30;99.90
15113;DHT22;7657;50.140;7.076;2023-08-07T07:21:49;12.40;99.90
15113;DHT22;7657;50.140;7.076;2023-08-07T07:24:16;12.30;99.90
15113;DHT22;7657;50.140;7.076;2023-08-07T07:26:43;12.40;99.90
15113;DHT22;7657;50.140;7.076;2023-08-07T07:29:10;12.40;99.90
15113;DHT22;7657;50.140;7.076;2023-08-07T07:31:37;12.40;99.90
15113;DHT22;7657;50.140;7.076;2023-08-07T07:34:03;12.40;99.90
15113;DHT22;7657;50.140;7.076;2023-08-07T07:36:30;12.30;99.90
15113;DHT22;7657;50.140;7.076;2023-08-07T07:38:59;12.30;99.90
15113;DHT22;7657;50.140;7.076;2023-08-07T07:41:25;12.30;99.90
15113;DHT22;7657;50.140;7.076;2023-08-07T07:43:53;12.30;99.90
15113;DHT22;7657;50.140;7.076;2023-08-07T07:46:22;12.30;99.90
15113;DHT22;7657;50.140;7.076;2023-08-07T07:48:49;12.30;99.90
15113;DHT22;7657;50.140;7.076;2023-08-07T07:51:16;12.30;99.90
15113;DHT22;7657;50.140;7.076;2023-08-07T07:53:42;12.30;99.90
15113;DHT22;7657;50.140;7.076;2023-08-07T07:56:11;12.40;99.90
15113;DHT22;7657;50.140;7.076;2023-08-07T07:58:38;12.50;99.90
15113;DHT22;7657;50.140;7.076;2023-08-07T08:01:06;12.50;99.90
15113;DHT22;7657;50.140;7.076;2023-08-07T08:03:34;12.60;99.90
15113;DHT22;7657;50.140;7.076;2023-08-07T08:06:01;12.60;99.90
15113;DHT22;7657;50.140;7.076;2023-08-07T08:08:28;12.60;99.90
15113;DHT22;7657;50.140;7.076;2023-08-07T08:10:54;12.70;99.90
15113;DHT22;7657;50.140;7.076;2023-08-07T08:13:23;12.80;99.90
15113;DHT22;7657;50.140;7.076;2023-08-07T08:15:51;12.80;99.90
15113;DHT22;7657;50.140;7.076;2023-08-07T08:18:17;12.80;99.90
15113;DHT22;7657;50.140;7.076;2023-08-07T08:20:44;12.80;99.90
15113;DHT22;7657;50.140;7.076;2023-08-07T08:23:11;12.90;99.90
15113;DHT22;7657;50.140;7.076;2023-08-07T08:25:39;13.00;99.90
15113;DHT22;7657;50.140;7.076;2023-08-07T08:28:05;13.00;99.90
15113;DHT22;7657;50.140;7.076;2023-08-07T08:30:34;13.00;99.90
15113;DHT22;7657;50.140;7.076;2023-08-07T08:33:01;13.00;99.90
15113;DHT22;7657;50.140;7.076;2023-08-07T08:35:28;13.00;99.90
15113;DHT22;7657;50.140;7.076;2023-08-07T08:37:54;13.00;99.90
15113;DHT22;7657;50.140;7.076;2023-08-07T08:40:22;13.00;99.90
15113;DHT22;7657;50.140;7.076;2023-08-07T08:42:51;13.00;99.90
15113;DHT22;7657;50.140;7.076;2023-08-07T08:45:20;13.00;99.90
15113;DHT22;7657;50.140;7.076;2023-08-07T08:47:51;13.10;99.90
15113;DHT22;7657;50.140;7.076;2023-08-07T08:50:19;13.20;99.90
15113;DHT22;7657;50.140;7.076;2023-08-07T08:52:46;13.20;99.90
15113;DHT22;7657;50.140;7.076;2023-08-07T08:55:13;13.20;99.90
15113;DHT22;7657;50.140;7.076;2023-08-07T08:57:40;13.30;99.90
15113;DHT22;7657;50.140;7.076;2023-08-07T09:00:08;13.30;99.90
15113;DHT22;7657;50.140;7.076;2023-08-07T09:02:44;13.30;99.90
15113;DHT22;7657;50.140;7.076;2023-08-07T09:05:13;13.40;99.90
15113;DHT22;7657;50.140;7.076;2023-08-07T09:07:40;13.40;99.90
15113;DHT22;7657;50.140;7.076;2023-08-07T09:10:09;13.40;99.90
15113;DHT22;7657;50.140;7.076;2023-08-07T09:12:40;13.40;99.90
15113;DHT22;7657;50.140;7.076;2023-08-07T09:15:09;13.50;99.90
15113;DHT22;7657;50.140;7.076;2023-08-07T09:17:39;13.60;99.90
15113;DHT22;7657;50.140;7.076;2023-08-07T09:20:07;13.70;99.90
15113;DHT22;7657;50.140;7.076;2023-08-07T09:22:38;13.70;99.90
15113;DHT22;7657;50.140;7.076;2023-08-07T09:25:06;13.80;99.90
15113;DHT22;7657;50.140;7.076;2023-08-07T09:27:35;13.90;99.90
15113;DHT22;7657;50.140;7.076;2023-08-07T09:30:05;14.00;99.90
15113;DHT22;7657;50.140;7.076;2023-08-07T09:32:33;14.00;99.90
15113;DHT22;7657;50.140;7.076;2023-08-07T09:35:02;14.10;99.90
15113;DHT22;7657;50.140;7.076;2023-08-07T09:37:30;14.20;99.90
15113;DHT22;7657;50.140;7.076;2023-08-07T09:40:01;14.20;99.90
15113;DHT22;7657;50.140;7.076;2023-08-07T09:42:31;14.30;99.90
15113;DHT22;7657;50.140;7.076;2023-08-07T09:45:00;14.50;99.90
15113;DHT22;7657;50.140;7.076;2023-08-07T09:47:27;14.40;99.90
15113;DHT22;7657;50.140;7.076;2023-08-07T09:49:55;14.50;99.90
15113;DHT22;7657;50.140;7.076;2023-08-07T09:52:24;14.50;99.90
15113;DHT22;7657;50.140;7.076;2023-08-07T09:54:54;14.50;99.90
15113;DHT22;7657;50.140;7.076;2023-08-07T09:57:23;14.60;99.90
15113;DHT22;7657;50.140;7.076;2023-08-07T09:59:50;14.60;99.90
15113;DHT22;7657;50.140;7.076;2023-08-07T10:02:17;14.60;99.90
15113;DHT22;7657;50.140;7.076;2023-08-07T10:04:46;14.80;99.90
15113;DHT22;7657;50.140;7.076;2023-08-07T10:07:14;14.80;99.90
15113;DHT22;7657;50.140;7.076;2023-08-07T10:09:42;14.80;99.90
15113;DHT22;7657;50.140;7.076;2023-08-07T10:12:10;14.90;99.90
15113;DHT22;7657;50.140;7.076;2023-08-07T10:14:40;14.90;99.90
15113;DHT22;7657;50.140;7.076;2023-08-07T10:17:08;15.00;99.90
15113;DHT22;7657;50.140;7.076;2023-08-07T10:19:35;15.10;99.90
15113;DHT22;7657;50.140;7.076;2023-08-07T10:22:05;15.20;99.90
15113;DHT22;7657;50.140;7.076;2023-08-07T10:24:34;15.30;99.90
15113;DHT22;7657;50.140;7.076;2023-08-07T10:27:01;15.40;99.90
15113;DHT22;7657;50.140;7.076;2023-08-07T10:29:30;15.20;99.90
15113;DHT22;7657;50.140;7.076;2023-08-07T10:31:59;15.20;99.90
15113;DHT22;7657;50.140;7.076;2023-08-07T10:34:28;15.20;99.90
15113;DHT22;7657;50.140;7.076;2023-08-07T10:36:56;15.20;99.90
15113;DHT22;7657;50.140;7.076;2023-08-07T10:39:23;15.20;99.90
15113;DHT22;7657;50.140;7.076;2023-08-07T10:41:53;15.30;99.90
15113;DHT22;7657;50.140;7.076;2023-08-07T10:44:22;15.30;99.90
15113;DHT22;7657;50.140;7.076;2023-08-07T10:46:51;15.30;99.90
15113;DHT22;7657;50.140;7.076;2023-08-07T10:49:33;15.30;99.90
15113;DHT22;7657;50.140;7.076;2023-08-07T10:52:03;15.20;99.90
15113;DHT22;7657;50.140;7.076;2023-08-07T10:54:30;15.40;99.90
15113;DHT22;7657;50.140;7.076;2023-08-07T10:56:56;15.40;99.90
15113;DHT22;7657;50.140;7.076;2023-08-07T10:59:29;15.50;99.90
15113;DHT22;7657;50.140;7.076;2023-08-07T11:01:56;15.60;99.90
15113;DHT22;7657;50.140;7.076;2023-08-07T11:04:23;15.60;99.90
15113;DHT22;7657;50.140;7.076;2023-08-07T11:06:53;15.70;99.90
15113;DHT22;7657;50.140;7.076;2023-08-07T11:09:19;15.80;99.90
15113;DHT22;7657;50.140;7.076;2023-08-07T11:11:48;16.00;99.90
15113;DHT22;7657;50.140;7.076;2023-08-07T11:14:17;16.00;99.90
15113;DHT22;7657;50.140;7.076;2023-08-07T11:16:45;15.90;99.90
15113;DHT22;7657;50.140;7.076;2023-08-07T11:19:12;16.00;99.90
15113;DHT22;7657;50.140;7.076;2023-08-07T11:21:40;15.90;99.90
15113;DHT22;7657;50.140;7.076;2023-08-07T11:24:11;15.90;99.90
15113;DHT22;7657;50.140;7.076;2023-08-07T11:26:38;15.80;99.90
15113;DHT22;7657;50.140;7.076;2023-08-07T11:29:06;15.80;99.90
15113;DHT22;7657;50.140;7.076;2023-08-07T11:31:33;15.80;99.90
15113;DHT22;7657;50.140;7.076;2023-08-07T11:34:00;15.80;99.90
15113;DHT22;7657;50.140;7.076;2023-08-07T11:36:28;15.80;99.90
15113;DHT22;7657;50.140;7.076;2023-08-07T11:38:55;15.80;99.90
15113;DHT22;7657;50.140;7.076;2023-08-07T11:41:23;15.90;99.90
15113;DHT22;7657;50.140;7.076;2023-08-07T11:43:50;16.00;99.90
15113;DHT22;7657;50.140;7.076;2023-08-07T11:46:17;16.10;99.90
15113;DHT22;7657;50.140;7.076;2023-08-07T11:48:44;16.10;99.90
15113;DHT22;7657;50.140;7.076;2023-08-07T11:51:11;16.10;99.90
15113;DHT22;7657;50.140;7.076;2023-08-07T11:53:40;16.00;99.90
15113;DHT22;7657;50.140;7.076;2023-08-07T11:56:08;16.10;99.90
15113;DHT22;7657;50.140;7.076;2023-08-07T11:58:38;16.10;99.90
15113;DHT22;7657;50.140;7.076;2023-08-07T12:01:06;16.10;99.90
15113;DHT22;7657;50.140;7.076;2023-08-07T12:03:35;16.30;99.90
15113;DHT22;7657;50.140;7.076;2023-08-07T12:06:05;16.40;99.90
15113;DHT22;7657;50.140;7.076;2023-08-07T12:08:33;16.40;99.90
15113;DHT22;7657;50.140;7.076;2023-08-07T12:11:01;16.50;99.90
15113;DHT22;7657;50.140;7.076;2023-08-07T12:13:29;16.60;99.90
15113;DHT22;7657;50.140;7.076;2023-08-07T12:15:58;16.60;99.90
15113;DHT22;7657;50.140;7.076;2023-08-07T12:18:26;16.60;99.90
15113;DHT22;7657;50.140;7.076;2023-08-07T12:20:57;16.50;99.90
15113;DHT22;7657;50.140;7.076;2023-08-07T12:23:24;16.50;99.90
15113;DHT22;7657;50.140;7.076;2023-08-07T12:25:50;16.50;99.90
15113;DHT22;7657;50.140;7.076;2023-08-07T12:28:18;16.60;99.90
15113;DHT22;7657;50.140;7.076;2023-08-07T12:30:46;16.60;99.90
15113;DHT22;7657;50.140;7.076;2023-08-07T12:33:14;16.70;99.90
15113;DHT22;7657;50.140;7.076;2023-08-07T12:35:42;16.80;99.90
15113;DHT22;7657;50.140;7.076;2023-08-07T12:38:09;16.80;99.90
15113;DHT22;7657;50.140;7.076;2023-08-07T12:40:36;17.00;99.90
15113;DHT22;7657;50.140;7.076;2023-08-07T12:43:03;17.00;99.90
15113;DHT22;7657;50.140;7.076;2023-08-07T12:45:30;17.10;99.90
15113;DHT22;7657;50.140;7.076;2023-08-07T12:47:58;17.20;99.90
15113;DHT22;7657;50.140;7.076;2023-08-07T12:50:26;17.20;99.90
15113;DHT22;7657;50.140;7.076;2023-08-07T12:52:53;17.40;99.90
15113;DHT22;7657;50.140;7.076;2023-08-07T12:55:20;17.40;99.90
15113;DHT22;7657;50.140;7.076;2023-08-07T12:57:47;17.50;99.90
15113;DHT22;7657;50.140;7.076;2023-08-07T13:00:15;17.70;99.90
15113;DHT22;7657;50.140;7.076;2023-08-07T13:02:44;17.80;99.90
15113;DHT22;7657;50.140;7.076;2023-08-07T13:05:12;17.90;99.90
15113;DHT22;7657;50.140;7.076;2023-08-07T13:07:41;18.20;99.90
15113;DHT22;7657;50.140;7.076;2023-08-07T13:10:11;18.30;99.90
15113;DHT22;7657;50.140;7.076;2023-08-07T13:12:40;18.30;99.90
15113;DHT22;7657;50.140;7.076;2023-08-07T13:15:08;18.20;99.90
15113;DHT22;7657;50.140;7.076;2023-08-07T13:17:36;18.60;99.90
15113;DHT22;7657;50.140;7.076;2023-08-07T13:20:04;18.60;99.90
15113;DHT22;7657;50.140;7.076;2023-08-07T13:22:33;18.40;99.90
15113;DHT22;7657;50.140;7.076;2023-08-07T13:25:02;18.40;99.90
15113;DHT22;7657;50.140;7.076;2023-08-07T13:27:29;18.50;99.90
15113;DHT22;7657;50.140;7.076;2023-08-07T13:29:56;18.80;99.90
15113;DHT22;7657;50.140;7.076;2023-08-07T13:32:23;19.10;99.90
15113;DHT22;7657;50.140;7.076;2023-08-07T13:34:50;18.90;99.90
15113;DHT22;7657;50.140;7.076;2023-08-07T13:37:17;18.80;99.90
15113;DHT22;7657;50.140;7.076;2023-08-07T13:39:44;18.70;99.90
15113;DHT22;7657;50.140;7.076;2023-08-07T13:42:15;18.70;99.90
15113;DHT22;7657;50.140;7.076;2023-08-07T13:44:42;18.80;99.90
15113;DHT22;7657;50.140;7.076;2023-08-07T13:47:09;19.20;99.90
15113;DHT22;7657;50.140;7.076;2023-08-07T13:49:37;19.20;99.90
15113;DHT22;7657;50.140;7.076;2023-08-07T13:52:04;19.40;99.90
15113;DHT22;7657;50.140;7.076;2023-08-07T13:54:31;19.40;99.90
15113;DHT22;7657;50.140;7.076;2023-08-07T13:56:58;19.60;99.90
15113;DHT22;7657;50.140;7.076;2023-08-07T13:59:26;19.80;99.90
15113;DHT22;7657;50.140;7.076;2023-08-07T14:01:53;20.00;99.90
15113;DHT22;7657;50.140;7.076;2023-08-07T14:04:21;20.00;99.90
15113;DHT22;7657;50.140;7.076;2023-08-07T14:06:48;20.10;99.90
15113;DHT22;7657;50.140;7.076;2023-08-07T14:09:15;20.10;99.90
15113;DHT22;7657;50.140;7.076;2023-08-07T14:11:44;20.20;99.90
15113;DHT22;7657;50.140;7.076;2023-08-07T14:14:10;20.40;99.90
15113;DHT22;7657;50.140;7.076;2023-08-07T14:16:39;20.50;99.90
15113;DHT22;7657;50.140;7.076;2023-08-07T14:19:05;20.70;99.90
15113;DHT22;7657;50.140;7.076;2023-08-07T14:21:33;21.00;99.90
15113;DHT22;7657;50.140;7.076;2023-08-07T14:24:00;21.20;99.90
15113;DHT22;7657;50.140;7.076;2023-08-07T14:26:27;21.30;99.90
15113;DHT22;7657;50.140;7.076;2023-08-07T14:28:55;21.10;99.90
15113;DHT22;7657;50.140;7.076;2023-08-07T14:31:22;21.10;99.90
15113;DHT22;7657;50.140;7.076;2023-08-07T14:33:50;21.00;99.90
15113;DHT22;7657;50.140;7.076;2023-08-07T14:36:17;21.10;99.90
15113;DHT22;7657;50.140;7.076;2023-08-07T14:38:44;21.10;99.90
15113;DHT22;7657;50.140;7.076;2023-08-07T14:41:11;21.20;99.90
15113;DHT22;7657;50.140;7.076;2023-08-07T14:43:38;21.00;99.90
15113;DHT22;7657;50.140;7.076;2023-08-07T14:46:04;21.40;99.90
15113;DHT22;7657;50.140;7.076;2023-08-07T14:48:31;21.80;99.90
15113;DHT22;7657;50.140;7.076;2023-08-07T14:51:00;21.70;99.90
15113;DHT22;7657;50.140;7.076;2023-08-07T14:53:26;21.40;99.90
15113;DHT22;7657;50.140;7.076;2023-08-07T14:55:53;21.80;99.90
15113;DHT22;7657;50.140;7.076;2023-08-07T14:58:20;21.90;99.90
15113;DHT22;7657;50.140;7.076;2023-08-07T15:00:47;21.90;99.90
15113;DHT22;7657;50.140;7.076;2023-08-07T15:03:15;22.20;99.60
15113;DHT22;7657;50.140;7.076;2023-08-07T15:05:42;22.60;99.90
15113;DHT22;7657;50.140;7.076;2023-08-07T15:08:10;22.40;99.10
15113;DHT22;7657;50.140;7.076;2023-08-07T15:10:39;22.10;98.80
15113;DHT22;7657;50.140;7.076;2023-08-07T15:13:06;21.90;99.60
15113;DHT22;7657;50.140;7.076;2023-08-07T15:15:33;22.20;99.00
15113;DHT22;7657;50.140;7.076;2023-08-07T15:18:00;21.80;99.20
15113;DHT22;7657;50.140;7.076;2023-08-07T15:20:28;21.80;99.20
15113;DHT22;7657;50.140;7.076;2023-08-07T15:22:56;21.20;99.50
15113;DHT22;7657;50.140;7.076;2023-08-07T15:25:24;20.80;99.90
15113;DHT22;7657;50.140;7.076;2023-08-07T15:27:51;20.60;99.90
15113;DHT22;7657;50.140;7.076;2023-08-07T15:30:18;20.60;99.90
15113;DHT22;7657;50.140;7.076;2023-08-07T15:32:45;20.50;99.90
15113;DHT22;7657;50.140;7.076;2023-08-07T15:35:12;21.00;99.90
15113;DHT22;7657;50.140;7.076;2023-08-07T15:37:39;20.90;99.90
15113;DHT22;7657;50.140;7.076;2023-08-07T15:40:07;20.90;99.90
15113;DHT22;7657;50.140;7.076;2023-08-07T15:42:36;20.70;99.90
15113;DHT22;7657;50.140;7.076;2023-08-07T15:45:03;20.80;99.90
15113;DHT22;7657;50.140;7.076;2023-08-07T15:47:30;20.70;99.90